Detalii statie Girov TCE 3 BRAZI [000011A2]

Toti senzorii

Date Temperatura solului [C]Precipitatii [mm]Voltaj baterie [mV]Leaf Wetness [Min]HC Air temperature [C]HC Relative humidity [%]Punctul de roua [C]
medieminmaxsumaultimatimpmedieminmaxmediemediemin
2020-06-02 07:00:00 0 6610 0 8.95 8.05 9.97 100 8.9 8
2020-06-02 08:00:00 0 6708 0 12.21 10.63 13.6 100 12.1 10.6
2020-06-02 09:00:00 0 7000 0 13.26 12.7 14.21 100 13.2 12.7
2020-06-02 10:00:00 0 7000 0 14.86 13.17 16.74 100 14.8 13.1
2020-06-02 11:00:00 0 6972 0 15.37 14.18 16.41 100 15.3 14.1
2020-06-02 12:00:00 0 7000 0 15.54 14.67 16.84 99.89 15.4 14.6
2020-06-02 13:00:00 0 6972 0 15.73 14.9 16.47 99.95 15.6 14.9
2020-06-02 14:00:00 0 6992 0 15.94 14.87 16.82 100 15.9 14.8
2020-06-02 15:00:00 0 6992 0 17.3 15.75 19.65 100 17.2 15.7
2020-06-02 16:00:00 0 6992 0 17.97 16.29 20.32 99.69 17.8 16.2
2020-06-02 17:00:00 0 6982 0 17.78 16.29 18.73 99.08 17.5 16.2
2020-06-02 18:00:00 0 6992 0 14.99 14.55 15.97 100 14.9 14.5
2020-06-02 19:00:00 0 6904 0 14.41 13.79 15.18 100 14.3 13.7
2020-06-02 20:00:00 0 6786 0 13.26 12.85 13.89 100 13.2 12.8
2020-06-02 21:00:00 2.2 6668 0 10.4 9 12.9 100 10.3 9
2020-06-02 22:00:00 1.2 6590 0 8.71 8.58 8.91 100 8.6 8.5
2020-06-02 23:00:00 0 6582 0 8.36 8.19 8.55 100 8.3 8.1
2020-06-03 00:00:00 0.2 6562 0 7.65 7.32 8.07 100 7.6 7.3
2020-06-03 01:00:00 0 6542 0 6.92 6.42 7.32 100 6.8 6.4
2020-06-03 02:00:00 0 6542 0 6.72 6.38 6.98 100 6.6 6.3
2020-06-03 03:00:00 0 6522 0 6.9 6.65 7.13 100 6.8 6.6
2020-06-03 04:00:00 0 6512 0 6.39 5.96 6.72 100 6.3 5.9
2020-06-03 05:00:00 0 6502 0 6.73 6.43 7.05 100 6.6 6.4
2020-06-03 06:00:00 0 6494 0 7.28 7.13 7.41 100 7.2 7.1
2020-06-03 07:00:00 0 6660 0 8.58 7.5 9.43 100 8.5 7.5
2020-06-03 08:00:00 0 6826 0 9.5 8.71 10.29 100 9.4 8.7
2020-06-03 09:00:00 0 7000 0 12.05 10.37 13.59 100 12 10.3
2020-06-03 10:00:00 0 6982 0 13.21 12.83 14 100 13.1 12.8
2020-06-03 11:00:00 0 7000 0 13.08 12.64 14.4 100 13 12.6
2020-06-03 12:00:00 0 6992 0 16.74 15.09 17.46 100 16.7 15
2020-06-03 13:00:00 0 6992 0 18.39 17.5 19.52 100 18.3 17.5
2020-06-03 14:00:00 0 6942 0 19.02 17.75 21.33 99.96 18.9 17.7
2020-06-03 15:00:00 0 6992 0 17.02 16.6 17.81 100 16.9 16.6
2020-06-03 16:00:00 0 6992 0 17.02 16.5 17.73 100 17 16.5
2020-06-03 17:00:00 0 6962 0 18.45 17.32 19.32 100 18.4 17.3
2020-06-03 18:00:00 0 6932 0 17.02 15.8 18.61 100 16.9 15.8
2020-06-03 19:00:00 0 6992 0 15.71 15.28 15.93 100 15.6 15.2
2020-06-03 20:00:00 0 6904 0 14.53 14.16 15.31 100 14.4 14.1
2020-06-03 21:00:00 0 6766 0 13.04 11.93 14.11 100 13 11.9
2020-06-03 22:00:00 0 6668 0 11.03 10.09 11.73 100 10.9 10
2020-06-03 23:00:00 0 6600 0 8.92 8 9.74 100 8.8 8
2020-06-04 00:00:00 0 6572 0 7.85 7.44 8.31 100 7.8 7.4
2020-06-04 01:00:00 0 6562 0 7.46 7.05 7.81 100 7.4 7
2020-06-04 02:00:00 0 6542 0 7.14 6.9 7.66 100 7.1 6.9
2020-06-04 03:00:00 0 6542 0 6.2 5.71 6.92 100 6.1 5.7
2020-06-04 04:00:00 0 6522 0 5.61 5.34 6.1 100 5.5 5.3
2020-06-04 05:00:00 0 6522 0 5.49 5.11 6.12 100 5.4 5.1
2020-06-04 06:00:00 0 6512 0 5.27 4.85 5.76 100 5.2 4.8